createdAt,value
2023-11-24T00:01:39.657Z,100776.25
2023-11-24T00:04:06.487Z,100790.06
2023-11-24T00:06:33.619Z,100784.81
2023-11-24T00:09:00.138Z,100780.22
2023-11-24T00:11:27.448Z,100760.63
2023-11-24T00:13:53.851Z,100764.91
2023-11-24T00:16:20.511Z,100768.44
2023-11-24T00:18:46.947Z,100779.78
2023-11-24T00:21:13.877Z,100767.84
2023-11-24T00:23:40.383Z,100778.25
2023-11-24T00:26:07.467Z,100783.66
2023-11-24T00:28:35.064Z,100780.94
2023-11-24T00:31:03.565Z,100774.84
2023-11-24T00:33:30.458Z,100784.38
2023-11-24T00:35:56.876Z,100772.94
2023-11-24T00:38:23.534Z,100788.91
2023-11-24T00:40:51.130Z,100781.50
2023-11-24T00:43:17.587Z,100777.72
2023-11-24T00:45:44.100Z,100779.59
2023-11-24T00:48:11.376Z,100789.31
2023-11-24T00:50:37.864Z,100787.66
2023-11-24T00:53:04.913Z,100783.06
2023-11-24T00:55:32.210Z,100791.19
2023-11-24T00:57:59.686Z,100791.53
2023-11-24T01:00:26.141Z,100781.16
2023-11-24T01:02:52.587Z,100782.72
2023-11-24T01:05:20.121Z,100786.25
2023-11-24T01:07:47.671Z,100796.28
2023-11-24T01:10:14.066Z,100797.84
2023-11-24T01:12:41.389Z,100810.34
2023-11-24T01:15:09.666Z,100808.13
2023-11-24T01:17:37.278Z,100809.78
2023-11-24T01:20:05.189Z,100816.03
2023-11-24T01:22:31.678Z,100810.59
2023-11-24T01:24:58.233Z,100818.50
2023-11-24T01:27:24.788Z,100823.09
2023-11-24T01:29:51.226Z,100803.84
2023-11-24T01:32:17.746Z,100817.75
2023-11-24T01:34:44.271Z,100816.38
2023-11-24T01:37:11.057Z,100809.78
2023-11-24T01:39:38.217Z,100824.41
2023-11-24T01:42:05.809Z,100818.97
2023-11-24T01:44:32.688Z,100810.72
2023-11-24T01:46:59.255Z,100818.25
2023-11-24T01:49:27.208Z,100834.53
2023-11-24T01:51:56.564Z,100839.78
2023-11-24T01:54:27.130Z,100835.00
2023-11-24T01:56:58.696Z,100852.59
2023-11-24T01:59:25.178Z,100849.09
2023-11-24T02:01:51.978Z,100842.94
2023-11-24T02:04:18.536Z,100834.22
2023-11-24T02:06:45.587Z,100831.91
2023-11-24T02:09:12.253Z,100834.47
2023-11-24T02:11:38.705Z,100836.50
2023-11-24T02:14:07.510Z,100839.66
2023-11-24T02:16:34.975Z,100834.25
2023-11-24T02:19:01.519Z,100835.19
2023-11-24T02:21:28.320Z,100830.13
2023-11-24T02:23:54.770Z,100823.31
2023-11-24T02:26:21.228Z,100824.94
2023-11-24T02:28:47.573Z,100823.53
2023-11-24T02:31:14.600Z,100816.22
2023-11-24T02:33:42.105Z,100814.59
2023-11-24T02:36:18.201Z,100809.03
2023-11-24T02:38:51.158Z,100805.75
2023-11-24T02:41:18.038Z,100800.78
2023-11-24T02:43:45.738Z,100796.09
2023-11-24T02:46:13.760Z,100805.50
2023-11-24T02:48:42.287Z,100807.16
2023-11-24T02:51:10.048Z,100805.03
2023-11-24T02:53:40.412Z,100787.59
2023-11-24T02:56:08.860Z,100794.19
2023-11-24T02:58:35.563Z,100786.19
2023-11-24T03:01:02.443Z,100779.97
2023-11-24T03:03:31.687Z,100775.72
2023-11-24T03:06:01.843Z,100774.88
2023-11-24T03:08:28.303Z,100768.28
2023-11-24T03:10:55.114Z,100774.88
2023-11-24T03:13:21.750Z,100765.00
2023-11-24T03:15:48.170Z,100765.47
2023-11-24T03:18:14.589Z,100765.56
2023-11-24T03:20:42.100Z,100767.47
2023-11-24T03:23:08.692Z,100775.50
2023-11-24T03:25:35.591Z,100773.00
2023-11-24T03:28:02.398Z,100763.47
2023-11-24T03:30:28.821Z,100756.63
2023-11-24T03:32:55.233Z,100755.94
2023-11-24T03:35:21.981Z,100750.28
2023-11-24T03:37:48.336Z,100750.84
2023-11-24T03:40:15.395Z,100756.41
2023-11-24T03:42:41.829Z,100747.47
2023-11-24T03:45:08.553Z,100747.69
2023-11-24T03:47:34.998Z,100748.63
2023-11-24T03:50:01.502Z,100741.34
2023-11-24T03:52:28.553Z,100749.00
2023-11-24T03:54:54.999Z,100749.00
2023-11-24T03:57:21.600Z,100744.84
2023-11-24T03:59:48.036Z,100738.63
2023-11-24T04:02:14.620Z,100745.81
2023-11-24T04:04:41.076Z,100745.44
2023-11-24T04:07:07.476Z,100740.50
2023-11-24T04:09:33.961Z,100741.56
2023-11-24T04:12:00.518Z,100729.19
2023-11-24T04:14:27.350Z,100729.69
2023-11-24T04:16:53.915Z,100730.72
2023-11-24T04:19:20.434Z,100729.69
2023-11-24T04:21:46.856Z,100722.72
2023-11-24T04:24:13.330Z,100728.50
2023-11-24T04:26:39.793Z,100722.72
2023-11-24T04:29:06.936Z,100726.50
2023-11-24T04:31:33.519Z,100728.38
2023-11-24T04:34:01.121Z,100721.56
2023-11-24T04:36:29.619Z,100727.06
2023-11-24T04:38:56.062Z,100736.72
2023-11-24T04:41:22.409Z,100715.56
2023-11-24T04:43:48.762Z,100714.75
2023-11-24T04:46:15.425Z,100696.47
2023-11-24T04:48:42.940Z,100698.97
2023-11-24T04:51:09.484Z,100704.38
2023-11-24T04:53:36.844Z,100705.41
2023-11-24T04:56:06.497Z,100712.34
2023-11-24T04:58:32.853Z,100709.44
2023-11-24T05:00:59.303Z,100706.72
2023-11-24T05:03:25.741Z,100716.13
2023-11-24T05:05:52.161Z,100716.97
2023-11-24T05:08:18.612Z,100713.44
2023-11-24T05:10:44.936Z,100708.03
2023-11-24T05:13:11.286Z,100703.41
2023-11-24T05:15:38.224Z,100702.69
2023-11-24T05:18:05.290Z,100704.13
2023-11-24T05:20:31.761Z,100707.28
2023-11-24T05:22:58.202Z,100710.13
2023-11-24T05:25:24.676Z,100701.41
2023-11-24T05:27:51.048Z,100700.94
2023-11-24T05:30:17.687Z,100703.06
2023-11-24T05:32:45.614Z,100699.75
2023-11-24T05:35:12.126Z,100698.22
2023-11-24T05:37:38.662Z,100692.81
2023-11-24T05:40:08.810Z,100695.53
2023-11-24T05:42:35.198Z,100689.53
2023-11-24T05:45:03.164Z,100674.94
2023-11-24T05:47:30.433Z,100682.25
2023-11-24T05:49:57.212Z,100680.94
2023-11-24T05:52:23.702Z,100685.28
2023-11-24T05:54:50.096Z,100693.53
2023-11-24T05:57:16.551Z,100698.00
2023-11-24T05:59:43.121Z,100692.34
2023-11-24T06:02:10.718Z,100690.00
2023-11-24T06:04:37.249Z,100692.47
2023-11-24T06:07:04.308Z,100691.22
2023-11-24T06:09:30.971Z,100687.47
2023-11-24T06:11:57.539Z,100695.81
2023-11-24T06:14:23.985Z,100695.25
2023-11-24T06:16:50.866Z,100687.81
2023-11-24T06:19:17.310Z,100686.06
2023-11-24T06:21:43.853Z,100689.34
2023-11-24T06:24:10.328Z,100682.75
2023-11-24T06:26:38.801Z,100684.88
2023-11-24T06:29:05.937Z,100671.94
2023-11-24T06:31:32.583Z,100669.25
2023-11-24T06:34:00.199Z,100666.06
2023-11-24T06:36:26.817Z,100659.53
2023-11-24T06:38:53.180Z,100657.41
2023-11-24T06:41:19.759Z,100654.59
2023-11-24T06:43:46.407Z,100658.47
2023-11-24T06:46:13.491Z,100636.13
2023-11-24T06:48:40.054Z,100644.34
2023-11-24T06:51:06.708Z,100646.31
2023-11-24T06:53:33.150Z,100647.25
2023-11-24T06:55:59.533Z,100635.34
2023-11-24T06:58:26.374Z,100644.41
2023-11-24T07:00:52.925Z,100639.59
2023-11-24T07:03:19.431Z,100642.53
2023-11-24T07:05:48.367Z,100646.75
2023-11-24T07:08:17.562Z,100657.13
2023-11-24T07:10:44.883Z,100657.13
2023-11-24T07:13:11.308Z,100667.53
2023-11-24T07:15:37.739Z,100668.41
2023-11-24T07:18:04.585Z,100683.09
2023-11-24T07:20:31.082Z,100681.03
2023-11-24T07:22:57.436Z,100664.31
2023-11-24T07:25:23.892Z,100679.19
2023-11-24T07:27:51.160Z,100675.34
2023-11-24T07:30:19.695Z,100663.41
2023-11-24T07:32:46.080Z,100666.63
2023-11-24T07:35:14.973Z,100655.84
2023-11-24T07:37:41.528Z,100642.78
2023-11-24T07:40:12.217Z,100641.28
2023-11-24T07:42:38.746Z,100638.38
2023-11-24T07:45:05.623Z,100648.47
2023-11-24T07:47:32.048Z,100649.53
2023-11-24T07:49:58.916Z,100656.00
2023-11-24T07:52:27.222Z,100660.47
2023-11-24T07:54:54.651Z,100651.94
2023-11-24T07:57:21.091Z,100645.69
2023-11-24T07:59:47.573Z,100639.97
2023-11-24T08:02:13.960Z,100644.78
2023-11-24T08:04:41.543Z,100657.63
2023-11-24T08:07:08.102Z,100649.81
2023-11-24T08:09:34.575Z,100655.28
2023-11-24T08:12:00.987Z,100641.94
2023-11-24T08:14:27.356Z,100639.03
2023-11-24T08:16:53.858Z,100632.19
2023-11-24T08:19:23.829Z,100619.97
2023-11-24T08:21:50.401Z,100618.78
2023-11-24T08:24:17.375Z,100607.97
2023-11-24T08:26:44.063Z,100610.34
2023-11-24T08:29:10.721Z,100612.44
2023-11-24T08:31:37.125Z,100624.91
2023-11-24T08:34:05.139Z,100610.34
2023-11-24T08:36:32.819Z,100615.31
2023-11-24T08:38:59.266Z,100605.22
2023-11-24T08:41:31.218Z,100601.25
2023-11-24T08:44:06.017Z,100594.09
2023-11-24T08:46:32.678Z,100588.63
2023-11-24T08:48:59.204Z,100598.06
2023-11-24T08:51:26.557Z,100604.03
2023-11-24T08:53:52.981Z,100595.22
2023-11-24T08:56:19.359Z,100600.34
2023-11-24T08:58:45.741Z,100592.09
2023-11-24T09:01:15.482Z,100587.28
2023-11-24T09:03:42.203Z,100589.19
2023-11-24T09:06:08.746Z,100587.09
2023-11-24T09:08:35.148Z,100587.34
2023-11-24T09:11:02.598Z,100575.97
2023-11-24T09:13:28.998Z,100575.16
2023-11-24T09:15:55.551Z,100574.31
2023-11-24T09:18:24.946Z,100567.41
2023-11-24T09:20:51.525Z,100559.38
2023-11-24T09:23:18.379Z,100565.03
2023-11-24T09:25:45.006Z,100567.28
2023-11-24T09:28:12.002Z,100572.69
2023-11-24T09:30:39.772Z,100558.31
2023-11-24T09:33:07.699Z,100555.97
2023-11-24T09:35:34.235Z,100552.09
2023-11-24T09:38:00.677Z,100544.34
2023-11-24T09:40:27.242Z,100557.25
2023-11-24T09:42:53.843Z,100545.63
2023-11-24T09:45:23.224Z,100543.28
2023-11-24T09:47:51.720Z,100541.25
2023-11-24T09:50:24.994Z,100529.53
2023-11-24T09:52:55.462Z,100531.66
2023-11-24T09:55:25.002Z,100525.41
2023-11-24T09:57:53.015Z,100517.41
2023-11-24T10:00:20.901Z,100515.28
2023-11-24T10:02:48.931Z,100504.25
2023-11-24T10:05:22.340Z,100500.09
2023-11-24T10:07:53.304Z,100499.41
2023-11-24T10:10:23.350Z,100488.47
2023-11-24T10:13:01.273Z,100493.06
2023-11-24T10:15:28.784Z,100492.94
2023-11-24T10:17:55.570Z,100502.50
2023-11-24T10:20:29.478Z,100481.91
2023-11-24T10:22:57.115Z,100495.41
2023-11-24T10:25:26.557Z,100496.94
2023-11-24T10:28:00.877Z,100477.31
2023-11-24T10:30:27.489Z,100494.47
2023-11-24T10:32:54.282Z,100498.22
2023-11-24T10:35:20.806Z,100494.94
2023-11-24T10:37:47.935Z,100490.34
2023-11-24T10:40:18.789Z,100487.03
2023-11-24T10:42:52.280Z,100495.47
2023-11-24T10:45:22.337Z,100496.44
2023-11-24T10:48:07.111Z,100491.66
2023-11-24T10:50:39.655Z,100472.63
2023-11-24T10:53:27.756Z,100475.69
2023-11-24T10:55:55.547Z,100468.75
2023-11-24T10:58:23.829Z,100463.09
2023-11-24T11:00:50.800Z,100473.09
2023-11-24T11:03:17.749Z,100445.72
2023-11-24T11:05:54.078Z,100452.50
2023-11-24T11:08:35.842Z,100445.81
2023-11-24T11:11:13.263Z,100457.00
2023-11-24T11:13:42.282Z,100455.94
2023-11-24T11:16:11.936Z,100462.88
2023-11-24T11:18:38.393Z,100456.88
2023-11-24T11:21:12.392Z,100460.19
2023-11-24T11:23:39.888Z,100451.72
2023-11-24T11:26:08.895Z,100446.53
2023-11-24T11:28:36.492Z,100450.06
2023-11-24T11:31:22.229Z,100456.78
2023-11-24T11:33:49.825Z,100445.47
2023-11-24T11:36:16.921Z,100437.84
2023-11-24T11:38:46.476Z,100438.56
2023-11-24T11:41:33.512Z,100439.47
2023-11-24T11:43:59.899Z,100433.59
2023-11-24T11:46:26.369Z,100434.06
2023-11-24T11:48:56.192Z,100433.47
2023-11-24T11:51:24.680Z,100424.53
2023-11-24T11:53:52.044Z,100422.97
2023-11-24T11:56:19.712Z,100414.81
2023-11-24T11:58:46.105Z,100411.84
2023-11-24T12:01:14.872Z,100417.03
2023-11-24T12:03:41.491Z,100423.25
2023-11-24T12:06:08.333Z,100417.16
2023-11-24T12:08:35.096Z,100416.44
2023-11-24T12:11:01.553Z,100405.28
2023-11-24T12:13:28.189Z,100421.63
2023-11-24T12:15:55.035Z,100426.53
2023-11-24T12:18:21.773Z,100415.28
2023-11-24T12:20:51.961Z,100402.50
2023-11-24T12:23:22.082Z,100394.84
2023-11-24T12:25:48.691Z,100410.59
2023-11-24T12:28:15.233Z,100401.63
2023-11-24T12:30:43.759Z,100403.31
2023-11-24T12:33:15.394Z,100399.44
2023-11-24T12:35:56.404Z,100406.44
2023-11-24T12:38:23.638Z,100401.97
2023-11-24T12:40:52.477Z,100404.69
2023-11-24T12:43:22.813Z,100394.00
2023-11-24T12:45:51.058Z,100397.53
2023-11-24T12:48:25.523Z,100394.97
2023-11-24T12:50:59.640Z,100383.66
2023-11-24T12:53:26.168Z,100380.94
2023-11-24T12:55:52.833Z,100375.91
2023-11-24T12:58:19.567Z,100380.84
2023-11-24T13:00:47.581Z,100384.91
2023-11-24T13:03:14.385Z,100385.50
2023-11-24T13:05:40.928Z,100372.09
2023-11-24T13:08:07.927Z,100370.56
2023-11-24T13:10:35.655Z,100375.59
2023-11-24T13:13:02.903Z,100374.50
2023-11-24T13:15:29.616Z,100375.91
2023-11-24T13:17:57.022Z,100365.69
2023-11-24T13:20:29.224Z,100362.97
2023-11-24T13:22:55.736Z,100350.34
2023-11-24T13:25:30.302Z,100352.22
2023-11-24T13:27:57.214Z,100353.69
2023-11-24T13:30:23.707Z,100348.59
2023-11-24T13:32:50.937Z,100352.22
2023-11-24T13:35:17.840Z,100351.59
2023-11-24T13:37:46.046Z,100351.25
2023-11-24T13:40:18.386Z,100350.47
2023-11-24T13:42:45.492Z,100342.13
2023-11-24T13:45:14.737Z,100345.41
2023-11-24T13:47:42.152Z,100352.09
2023-11-24T13:50:10.398Z,100337.84
2023-11-24T13:52:36.884Z,100346.00
2023-11-24T13:55:06.806Z,100335.84
2023-11-24T13:57:33.456Z,100344.44
2023-11-24T13:59:59.980Z,100348.03
2023-11-24T14:02:26.750Z,100333.25
2023-11-24T14:04:55.445Z,100334.22
2023-11-24T14:07:22.118Z,100323.75
2023-11-24T14:09:49.763Z,100316.19
2023-11-24T14:12:16.506Z,100326.00
2023-11-24T14:14:44.025Z,100319.78
2023-11-24T14:17:10.591Z,100328.56
2023-11-24T14:19:36.966Z,100322.13
2023-11-24T14:22:05.794Z,100335.56
2023-11-24T14:24:33.713Z,100328.47
2023-11-24T14:27:00.181Z,100343.09
2023-11-24T14:29:28.889Z,100326.00
2023-11-24T14:31:55.392Z,100325.00
2023-11-24T14:34:21.818Z,100340.34
2023-11-24T14:36:49.401Z,100349.34
2023-11-24T14:39:27.126Z,100349.66
2023-11-24T14:41:57.077Z,100364.00
2023-11-24T14:44:24.583Z,100358.38
2023-11-24T14:46:52.334Z,100355.97
2023-11-24T14:49:18.975Z,100354.09
2023-11-24T14:51:49.617Z,100335.63
2023-11-24T14:54:17.239Z,100331.66
2023-11-24T14:56:44.632Z,100328.00
2023-11-24T14:59:11.929Z,100333.88
2023-11-24T15:01:39.895Z,100334.34
2023-11-24T15:04:17.816Z,100337.84
2023-11-24T15:06:50.844Z,100346.06
2023-11-24T15:09:17.422Z,100373.25
2023-11-24T15:11:44.954Z,100372.25
2023-11-24T15:14:15.338Z,100387.59
2023-11-24T15:16:53.040Z,100381.44
2023-11-24T15:19:22.134Z,100368.72
2023-11-24T15:21:49.721Z,100377.56
2023-11-24T15:24:16.121Z,100355.88
2023-11-24T15:26:42.484Z,100349.84
2023-11-24T15:29:10.959Z,100347.78
2023-11-24T15:31:40.295Z,100350.00
2023-11-24T15:34:06.957Z,100352.69
2023-11-24T15:36:35.164Z,100347.44
2023-11-24T15:39:02.666Z,100346.75
2023-11-24T15:41:39.010Z,100356.25
2023-11-24T15:44:07.876Z,100356.41
2023-11-24T15:46:39.684Z,100345.03
2023-11-24T15:49:16.686Z,100348.75
2023-11-24T15:51:46.730Z,100352.97
2023-11-24T15:54:14.353Z,100353.66
2023-11-24T15:56:40.967Z,100359.28
2023-11-24T15:59:23.563Z,100354.34
2023-11-24T16:01:52.664Z,100354.34
2023-11-24T16:04:21.654Z,100338.25
2023-11-24T16:06:55.152Z,100342.00
2023-11-24T16:09:22.733Z,100361.09
2023-11-24T16:12:09.348Z,100367.69
2023-11-24T16:14:38.130Z,100382.28
2023-11-24T16:17:05.465Z,100365.75
2023-11-24T16:19:33.420Z,100367.41
2023-11-24T16:22:00.655Z,100381.91
2023-11-24T16:24:30.202Z,100400.47
2023-11-24T16:26:56.940Z,100397.56
2023-11-24T16:29:24.562Z,100412.16
2023-11-24T16:31:52.460Z,100445.81
2023-11-24T16:34:26.290Z,100463.16
2023-11-24T16:36:56.355Z,100488.09
2023-11-24T16:39:23.664Z,100474.81
2023-11-24T16:41:53.352Z,100501.00
2023-11-24T16:44:19.707Z,100472.72
2023-11-24T16:46:57.596Z,100441.94
2023-11-24T16:49:24.248Z,100419.34
2023-11-24T16:51:50.812Z,100414.81
2023-11-24T16:54:17.529Z,100409.19
2023-11-24T16:56:44.115Z,100406.72
2023-11-24T16:59:10.466Z,100406.47
2023-11-24T17:01:36.949Z,100415.75
2023-11-24T17:04:03.690Z,100415.28
2023-11-24T17:06:30.116Z,100425.44
2023-11-24T17:08:56.543Z,100421.91
2023-11-24T17:11:22.993Z,100413.63
2023-11-24T17:13:49.549Z,100410.28
2023-11-24T17:16:16.336Z,100410.06
2023-11-24T17:18:43.054Z,100416.66
2023-11-24T17:21:09.613Z,100415.59
2023-11-24T17:23:41.289Z,100425.13
2023-11-24T17:26:10.813Z,100414.97
2023-11-24T17:28:37.984Z,100403.56
2023-11-24T17:31:09.312Z,100393.19
2023-11-24T17:33:40.381Z,100381.44
2023-11-24T17:36:09.046Z,100391.59
2023-11-24T17:38:35.660Z,100397.84
2023-11-24T17:41:02.580Z,100396.16
2023-11-24T17:43:30.219Z,100392.88
2023-11-24T17:45:57.267Z,100381.25
2023-11-24T17:48:24.505Z,100391.41
2023-11-24T17:50:51.076Z,100399.06
2023-11-24T17:53:17.619Z,100405.66
2023-11-24T17:55:44.071Z,100401.44
2023-11-24T17:58:12.050Z,100393.16
2023-11-24T18:00:40.894Z,100399.94
2023-11-24T18:03:08.506Z,100391.88
2023-11-24T18:05:34.989Z,100395.84
2023-11-24T18:08:04.086Z,100390.03
2023-11-24T18:10:30.599Z,100394.38
2023-11-24T18:12:57.988Z,100387.50
2023-11-24T18:15:24.644Z,100381.09
2023-11-24T18:17:50.989Z,100377.19
2023-11-24T18:20:18.699Z,100381.09
2023-11-24T18:22:45.156Z,100371.38
2023-11-24T18:25:13.087Z,100369.88
2023-11-24T18:27:40.047Z,100366.78
2023-11-24T18:30:07.942Z,100367.38
2023-11-24T18:32:34.445Z,100357.81
2023-11-24T18:35:01.214Z,100354.69
2023-11-24T18:37:27.628Z,100354.25
2023-11-24T18:39:54.100Z,100348.59
2023-11-24T18:42:20.830Z,100348.19
2023-11-24T18:44:47.375Z,100343.06
2023-11-24T18:47:18.860Z,100345.28
2023-11-24T18:49:46.530Z,100349.03
2023-11-24T18:52:13.514Z,100351.44
2023-11-24T18:54:43.221Z,100342.91
2023-11-24T18:57:10.560Z,100350.94
2023-11-24T18:59:39.908Z,100339.38
2023-11-24T19:02:06.647Z,100333.91
2023-11-24T19:04:33.204Z,100335.72
2023-11-24T19:07:00.067Z,100321.81
2023-11-24T19:09:26.525Z,100320.97
2023-11-24T19:11:52.926Z,100318.97
2023-11-24T19:14:19.359Z,100316.44
2023-11-24T19:16:46.811Z,100326.34
2023-11-24T19:19:14.324Z,100301.53
2023-11-24T19:21:41.253Z,100322.03
2023-11-24T19:24:08.438Z,100314.78
2023-11-24T19:26:37.354Z,100332.34
2023-11-24T19:29:08.704Z,100324.25
2023-11-24T19:31:38.155Z,100322.41
2023-11-24T19:34:06.959Z,100323.84
2023-11-24T19:36:33.571Z,100322.16
2023-11-24T19:39:01.098Z,100316.13
2023-11-24T19:41:27.642Z,100316.72
2023-11-24T19:43:54.117Z,100310.53
2023-11-24T19:46:22.421Z,100296.00
2023-11-24T19:48:51.651Z,100313.88
2023-11-24T19:51:18.645Z,100320.91
2023-11-24T19:53:47.483Z,100316.44
2023-11-24T19:56:15.507Z,100328.91
2023-11-24T19:58:43.485Z,100324.41
2023-11-24T20:01:09.929Z,100331.91
2023-11-24T20:03:38.998Z,100333.53
2023-11-24T20:06:07.337Z,100341.78
2023-11-24T20:08:34.166Z,100340.94
2023-11-24T20:11:00.524Z,100348.34
2023-11-24T20:13:26.951Z,100366.13
2023-11-24T20:15:53.787Z,100403.50
2023-11-24T20:18:20.211Z,100387.53
2023-11-24T20:20:47.714Z,100378.66
2023-11-24T20:23:14.436Z,100386.72
2023-11-24T20:25:40.794Z,100383.44
2023-11-24T20:28:10.073Z,100367.28
2023-11-24T20:30:36.465Z,100352.81
2023-11-24T20:33:02.983Z,100341.25
2023-11-24T20:35:30.477Z,100349.56
2023-11-24T20:37:57.176Z,100372.16
2023-11-24T20:40:25.743Z,100380.00
2023-11-24T20:42:52.140Z,100383.50
2023-11-24T20:45:18.513Z,100385.16
2023-11-24T20:47:44.907Z,100385.16
2023-11-24T20:50:11.861Z,100381.63
2023-11-24T20:52:38.362Z,100388.47
2023-11-24T20:55:05.474Z,100380.66
2023-11-24T20:57:31.963Z,100375.72
2023-11-24T20:59:58.438Z,100373.91
2023-11-24T21:02:24.898Z,100385.09
2023-11-24T21:04:51.615Z,100368.72
2023-11-24T21:07:20.008Z,100385.25
2023-11-24T21:09:46.655Z,100397.50
2023-11-24T21:12:13.607Z,100399.75
2023-11-24T21:14:40.064Z,100401.41
2023-11-24T21:17:06.589Z,100421.06
2023-11-24T21:19:33.015Z,100436.53
2023-11-24T21:21:59.363Z,100450.59
2023-11-24T21:24:25.768Z,100457.19
2023-11-24T21:26:52.191Z,100446.22
2023-11-24T21:29:18.524Z,100449.72
2023-11-24T21:31:45.211Z,100453.47
2023-11-24T21:34:12.652Z,100455.56
2023-11-24T21:36:39.506Z,100461.81
2023-11-24T21:39:06.299Z,100452.69
2023-11-24T21:41:34.618Z,100450.59
2023-11-24T21:44:01.279Z,100460.94
2023-11-24T21:46:27.832Z,100464.66
2023-11-24T21:48:54.523Z,100462.19
2023-11-24T21:51:20.895Z,100464.66
2023-11-24T21:53:47.406Z,100470.91
2023-11-24T21:56:14.906Z,100477.94
2023-11-24T21:58:41.565Z,100476.88
2023-11-24T22:01:08.001Z,100484.09
2023-11-24T22:03:34.803Z,100487.84
2023-11-24T22:06:01.315Z,100496.53
2023-11-24T22:08:27.697Z,100503.38
2023-11-24T22:10:54.305Z,100511.44
2023-11-24T22:13:20.968Z,100519.31
2023-11-24T22:15:50.350Z,100528.44
2023-11-24T22:18:17.948Z,100537.75
2023-11-24T22:20:44.373Z,100536.06
2023-11-24T22:23:10.797Z,100537.94
2023-11-24T22:25:37.957Z,100534.66
2023-11-24T22:28:04.761Z,100540.03
2023-11-24T22:30:31.215Z,100547.44
2023-11-24T22:32:57.778Z,100558.22
2023-11-24T22:35:24.948Z,100553.28
2023-11-24T22:37:51.357Z,100558.84
2023-11-24T22:40:18.901Z,100559.06
2023-11-24T22:42:46.353Z,100567.56
2023-11-24T22:45:13.023Z,100552.03
2023-11-24T22:47:42.567Z,100549.59
2023-11-24T22:50:11.021Z,100551.69
2023-11-24T22:52:38.197Z,100559.50
2023-11-24T22:55:06.530Z,100551.69
2023-11-24T22:57:36.712Z,100562.66
2023-11-24T23:00:06.831Z,100564.94
2023-11-24T23:02:34.416Z,100567.84
2023-11-24T23:05:00.861Z,100583.16
2023-11-24T23:07:27.571Z,100581.53
2023-11-24T23:09:53.992Z,100585.25
2023-11-24T23:12:20.655Z,100592.47
2023-11-24T23:14:47.091Z,100597.25
2023-11-24T23:17:13.427Z,100594.78
2023-11-24T23:19:41.669Z,100599.13
2023-11-24T23:22:09.737Z,100600.59
2023-11-24T23:24:36.731Z,100602.66
2023-11-24T23:27:07.936Z,100602.88
2023-11-24T23:29:34.865Z,100605.97
2023-11-24T23:32:01.442Z,100602.66
2023-11-24T23:34:28.224Z,100606.97
2023-11-24T23:36:54.803Z,100614.44
2023-11-24T23:39:21.174Z,100606.56
2023-11-24T23:41:48.113Z,100612.19
2023-11-24T23:44:15.909Z,100606.78
2023-11-24T23:46:42.815Z,100612.97
2023-11-24T23:49:09.952Z,100615.88
2023-11-24T23:51:36.549Z,100617.56
2023-11-24T23:54:04.099Z,100605.16
2023-11-24T23:56:30.517Z,100611.94
2023-11-24T23:58:56.981Z,100616.69
